createdAt,value
2017-05-14T00:00:18.815Z,0
2017-05-14T00:01:19.539Z,0
2017-05-14T00:02:20.542Z,0
2017-05-14T00:03:21.269Z,0
2017-05-14T00:04:21.996Z,0
2017-05-14T00:05:22.734Z,0
2017-05-14T00:06:23.452Z,0
2017-05-14T00:07:24.430Z,0
2017-05-14T00:08:25.158Z,0
2017-05-14T00:09:25.887Z,0
2017-05-14T00:10:26.638Z,0
2017-05-14T00:11:27.369Z,0
2017-05-14T00:12:28.344Z,0
2017-05-14T00:13:29.073Z,0
2017-05-14T00:14:30.056Z,0
2017-05-14T00:15:30.785Z,0
2017-05-14T00:16:31.511Z,0
2017-05-14T00:17:32.490Z,0
2017-05-14T00:18:33.218Z,0
2017-05-14T00:19:33.969Z,0
2017-05-14T00:20:34.695Z,0
2017-05-14T00:21:35.421Z,0
2017-05-14T00:22:36.400Z,0
2017-05-14T00:23:37.454Z,0
2017-05-14T00:24:38.108Z,0
2017-05-14T00:25:38.836Z,0
2017-05-14T00:26:39.566Z,0
2017-05-14T00:27:40.542Z,0
2017-05-14T00:28:41.271Z,0
2017-05-14T00:29:41.999Z,0
2017-05-14T00:30:42.729Z,0
2017-05-14T00:31:43.453Z,0
2017-05-14T00:32:44.432Z,0
2017-05-14T00:33:45.161Z,0
2017-05-14T00:34:45.887Z,0
2017-05-14T00:35:46.614Z,0
2017-05-14T00:36:47.342Z,0
2017-05-14T00:37:48.319Z,0
2017-05-14T00:38:49.041Z,0
2017-05-14T00:39:49.793Z,0
2017-05-14T00:40:50.521Z,0
2017-05-14T00:41:51.249Z,0
2017-05-14T00:42:52.229Z,0
2017-05-14T00:43:52.954Z,0
2017-05-14T00:44:53.706Z,0
2017-05-14T00:45:54.434Z,0
2017-05-14T00:46:55.159Z,0
2017-05-14T00:47:56.136Z,0
2017-05-14T00:48:56.862Z,0
2017-05-14T00:49:57.592Z,0
2017-05-14T00:50:58.320Z,0
2017-05-14T00:51:59.073Z,0
2017-05-14T00:53:00.050Z,0
2017-05-14T00:54:00.778Z,0
2017-05-14T00:55:01.511Z,0
2017-05-14T00:56:02.237Z,0
2017-05-14T00:57:02.965Z,0
2017-05-14T00:58:03.941Z,0
2017-05-14T00:59:04.667Z,0
2017-05-14T01:00:05.397Z,0
2017-05-14T01:01:06.122Z,0
2017-05-14T01:02:06.848Z,0
2017-05-14T01:03:07.825Z,0
2017-05-14T01:04:08.554Z,0
2017-05-14T01:05:09.283Z,0
2017-05-14T01:06:10.010Z,0
2017-05-14T01:07:10.741Z,0
2017-05-14T01:08:11.713Z,0
2017-05-14T01:09:12.465Z,0
2017-05-14T01:10:13.192Z,0
2017-05-14T01:11:13.919Z,0
2017-05-14T01:12:14.650Z,0
2017-05-14T01:13:15.629Z,0
2017-05-14T01:14:16.357Z,0
2017-05-14T01:15:17.084Z,0
2017-05-14T01:16:17.814Z,0
2017-05-14T01:17:18.540Z,0
2017-05-14T01:18:19.519Z,0
2017-05-14T01:19:20.244Z,0
2017-05-14T01:20:20.971Z,0
2017-05-14T01:21:21.697Z,0
2017-05-14T01:22:22.449Z,0
2017-05-14T01:23:23.428Z,0
2017-05-14T01:24:24.179Z,0
2017-05-14T01:25:24.909Z,0
2017-05-14T01:26:25.634Z,0
2017-05-14T01:27:26.363Z,0
2017-05-14T01:28:27.338Z,0
2017-05-14T01:29:28.068Z,0
2017-05-14T01:30:28.796Z,0
2017-05-14T01:31:29.523Z,0
2017-05-14T01:32:30.251Z,0
2017-05-14T01:33:31.232Z,0
2017-05-14T01:34:31.962Z,0
2017-05-14T01:35:32.713Z,0
2017-05-14T01:36:33.444Z,0
2017-05-14T01:37:34.168Z,0
2017-05-14T01:38:35.145Z,0
2017-05-14T01:39:35.876Z,0
2017-05-14T01:40:36.600Z,0
2017-05-14T01:41:37.331Z,0
2017-05-14T01:42:38.057Z,0
2017-05-14T01:43:39.035Z,0
2017-05-14T01:44:39.761Z,0
2017-05-14T01:45:40.488Z,0
2017-05-14T01:46:41.212Z,0
2017-05-14T01:47:41.942Z,0
2017-05-14T01:48:42.918Z,0
2017-05-14T01:49:43.647Z,0
2017-05-14T01:50:44.375Z,0
2017-05-14T01:51:45.100Z,0
2017-05-14T01:52:45.827Z,0
2017-05-14T01:53:46.806Z,0
2017-05-14T01:54:47.535Z,0
2017-05-14T01:55:48.285Z,0
2017-05-14T01:56:49.262Z,0
2017-05-14T01:57:49.991Z,0
2017-05-14T01:58:50.718Z,0
2017-05-14T01:59:51.446Z,0
2017-05-14T02:00:52.178Z,0
2017-05-14T02:01:53.202Z,0
2017-05-14T02:02:53.885Z,0
2017-05-14T02:03:54.615Z,0
2017-05-14T02:04:55.343Z,0
2017-05-14T02:05:56.097Z,0
2017-05-14T02:06:57.073Z,0
2017-05-14T02:07:57.799Z,0
2017-05-14T02:08:58.529Z,0
2017-05-14T02:09:59.255Z,0
2017-05-14T02:10:59.984Z,0
2017-05-14T02:12:00.966Z,0
2017-05-14T02:13:01.691Z,0
2017-05-14T02:14:02.422Z,0
2017-05-14T02:15:03.152Z,0
2017-05-14T02:16:03.874Z,0
2017-05-14T02:17:04.852Z,0
2017-05-14T02:18:05.581Z,0
2017-05-14T02:19:06.312Z,0
2017-05-14T02:20:07.039Z,0
2017-05-14T02:21:07.789Z,0
2017-05-14T02:22:08.767Z,0
2017-05-14T02:23:09.518Z,0
2017-05-14T02:24:10.245Z,0
2017-05-14T02:25:10.977Z,0
2017-05-14T02:26:11.701Z,0
2017-05-14T02:27:12.681Z,0
2017-05-14T02:28:13.407Z,0
2017-05-14T02:29:14.135Z,0
2017-05-14T02:30:14.865Z,0
2017-05-14T02:31:15.594Z,0
2017-05-14T02:32:16.572Z,0
2017-05-14T02:33:17.297Z,0
2017-05-14T02:34:18.054Z,0
2017-05-14T02:35:18.806Z,0
2017-05-14T02:36:19.533Z,0
2017-05-14T02:37:20.513Z,0
2017-05-14T02:38:21.237Z,0
2017-05-14T02:39:21.965Z,0
2017-05-14T02:40:22.697Z,0
2017-05-14T02:41:23.451Z,0
2017-05-14T02:42:24.425Z,0
2017-05-14T02:43:25.153Z,0
2017-05-14T02:44:25.879Z,0
2017-05-14T02:45:26.610Z,0
2017-05-14T02:46:27.338Z,0
2017-05-14T02:47:28.313Z,0
2017-05-14T02:48:29.042Z,0
2017-05-14T02:49:29.770Z,0
2017-05-14T02:50:30.502Z,0
2017-05-14T02:51:31.224Z,0
2017-05-14T02:52:32.229Z,0
2017-05-14T02:53:32.985Z,0
2017-05-14T02:54:33.711Z,0
2017-05-14T02:55:34.440Z,0
2017-05-14T02:56:35.169Z,0
2017-05-14T02:57:36.200Z,0
2017-05-14T02:58:36.875Z,0
2017-05-14T02:59:37.602Z,0
2017-05-14T03:00:38.330Z,0
2017-05-14T03:01:39.056Z,0
2017-05-14T03:02:40.035Z,4
2017-05-14T03:03:40.763Z,4
2017-05-14T03:04:41.488Z,4
2017-05-14T03:05:42.217Z,0
2017-05-14T03:06:42.947Z,4
2017-05-14T03:07:43.925Z,4
2017-05-14T03:08:44.650Z,4
2017-05-14T03:09:45.378Z,4
2017-05-14T03:10:46.105Z,8
2017-05-14T03:11:46.835Z,8
2017-05-14T03:12:47.815Z,8
2017-05-14T03:13:48.547Z,8
2017-05-14T03:14:49.275Z,8
2017-05-14T03:15:50.030Z,12
2017-05-14T03:16:50.757Z,12
2017-05-14T03:17:51.790Z,20
2017-05-14T03:18:52.543Z,16
2017-05-14T03:19:53.275Z,20
2017-05-14T03:20:54.002Z,24
2017-05-14T03:21:54.731Z,28
2017-05-14T03:22:55.739Z,32
2017-05-14T03:23:56.463Z,36
2017-05-14T03:24:57.194Z,40
2017-05-14T03:25:57.924Z,44
2017-05-14T03:26:58.657Z,52
2017-05-14T03:27:59.631Z,60
2017-05-14T03:29:00.358Z,64
2017-05-14T03:30:01.086Z,72
2017-05-14T03:31:01.816Z,80
2017-05-14T03:32:02.545Z,88
2017-05-14T03:33:03.520Z,96
2017-05-14T03:34:04.252Z,104
2017-05-14T03:35:04.982Z,116
2017-05-14T03:36:05.712Z,124
2017-05-14T03:37:06.444Z,136
2017-05-14T03:38:07.423Z,148
2017-05-14T03:39:08.154Z,160
2017-05-14T03:40:08.881Z,172
2017-05-14T03:41:09.614Z,184
2017-05-14T03:42:10.343Z,196
2017-05-14T03:43:11.323Z,212
2017-05-14T03:44:12.057Z,228
2017-05-14T03:45:12.783Z,244
2017-05-14T03:46:13.515Z,260
2017-05-14T03:47:14.244Z,280
2017-05-14T03:48:15.251Z,296
2017-05-14T03:49:15.983Z,316
2017-05-14T03:50:16.716Z,336
2017-05-14T03:51:17.443Z,356
2017-05-14T03:52:18.176Z,380
2017-05-14T03:53:19.157Z,408
2017-05-14T03:54:19.889Z,428
2017-05-14T03:55:20.646Z,452
2017-05-14T03:56:21.375Z,472
2017-05-14T03:57:22.106Z,496
2017-05-14T03:58:23.090Z,520
2017-05-14T03:59:23.823Z,544
2017-05-14T04:00:24.550Z,564
2017-05-14T04:01:25.279Z,588
2017-05-14T04:02:26.009Z,612
2017-05-14T04:03:27.015Z,628
2017-05-14T04:06:59.202Z,704
2017-05-14T04:07:59.931Z,732
2017-05-14T04:09:00.663Z,768
2017-05-14T04:10:01.415Z,784
2017-05-14T04:11:02.147Z,820
2017-05-14T04:12:03.126Z,852
2017-05-14T04:13:03.858Z,876
2017-05-14T04:14:04.589Z,900
2017-05-14T04:15:05.317Z,920
2017-05-14T04:16:06.041Z,944
2017-05-14T04:17:07.024Z,972
2017-05-14T04:18:07.755Z,1004
2017-05-14T04:19:08.489Z,1020
2017-05-14T04:20:09.219Z,1040
2017-05-14T04:21:09.952Z,1068
2017-05-14T04:22:10.936Z,1096
2017-05-14T04:23:11.667Z,1128
2017-05-14T04:24:12.400Z,1160
2017-05-14T04:25:13.132Z,1192
2017-05-14T04:26:13.865Z,1236
2017-05-14T04:27:14.846Z,1292
2017-05-14T04:28:15.579Z,1320
2017-05-14T04:29:16.309Z,1352
2017-05-14T04:30:17.041Z,1380
2017-05-14T04:31:17.772Z,1408
2017-05-14T04:32:18.755Z,1436
2017-05-14T04:33:19.486Z,1456
2017-05-14T04:34:20.219Z,1480
2017-05-14T04:35:20.950Z,1508
2017-05-14T04:36:21.683Z,1528
2017-05-14T04:37:22.665Z,1552
2017-05-14T04:38:23.398Z,1580
2017-05-14T04:39:24.129Z,1604
2017-05-14T04:40:24.864Z,1628
2017-05-14T04:41:25.595Z,1652
2017-05-14T04:42:26.579Z,1680
2017-05-14T04:43:27.310Z,1708
2017-05-14T04:44:28.041Z,1732
2017-05-14T04:45:28.776Z,1748
2017-05-14T04:46:29.506Z,1772
2017-05-14T04:47:30.491Z,1800
2017-05-14T04:48:31.220Z,1820
2017-05-14T04:49:31.952Z,1848
2017-05-14T04:50:32.686Z,1872
2017-05-14T04:51:33.416Z,1892
2017-05-14T04:52:34.424Z,1908
2017-05-14T04:53:35.156Z,1932
2017-05-14T04:54:35.889Z,1956
2017-05-14T04:55:36.621Z,1980
2017-05-14T04:56:37.356Z,2000
2017-05-14T04:57:38.339Z,2028
2017-05-14T04:58:39.071Z,2056
2017-05-14T04:59:39.803Z,2080
2017-05-14T05:00:40.534Z,2096
2017-05-14T05:01:41.268Z,2116
2017-05-14T05:02:42.295Z,2132
2017-05-14T05:03:42.983Z,2156
2017-05-14T05:04:43.715Z,2176
2017-05-14T05:05:44.447Z,2196
2017-05-14T05:06:45.181Z,2212
2017-05-14T05:07:46.163Z,2232
2017-05-14T05:08:46.919Z,2252
2017-05-14T05:09:47.677Z,2280
2017-05-14T05:10:48.409Z,2300
2017-05-14T05:11:49.145Z,2328
2017-05-14T05:12:50.131Z,2356
2017-05-14T05:13:50.887Z,2380
2017-05-14T05:14:51.624Z,2404
2017-05-14T05:15:52.357Z,2428
2017-05-14T05:16:53.115Z,2448
2017-05-14T05:17:54.098Z,2464
2017-05-14T05:18:54.829Z,2488
2017-05-14T05:19:55.562Z,2524
2017-05-14T05:20:56.302Z,2560
2017-05-14T05:21:57.032Z,2620
2017-05-14T05:22:58.016Z,2668
2017-05-14T05:23:58.750Z,2712
2017-05-14T05:24:59.481Z,2800
2017-05-14T05:26:00.219Z,2840
2017-05-14T05:27:00.953Z,2976
2017-05-14T05:28:01.939Z,3048
2017-05-14T05:29:02.696Z,2984
2017-05-14T05:30:03.429Z,2884
2017-05-14T05:31:04.167Z,2816
2017-05-14T05:32:04.899Z,2804
2017-05-14T05:33:05.881Z,2720
2017-05-14T05:34:06.643Z,2820
2017-05-14T05:35:07.400Z,2808
2017-05-14T05:36:08.140Z,2804
2017-05-14T05:37:08.872Z,2700
2017-05-14T05:38:09.857Z,2608
2017-05-14T05:39:10.615Z,2824
2017-05-14T05:40:11.351Z,2844
2017-05-14T05:41:12.083Z,2824
2017-05-14T05:42:12.817Z,2852
2017-05-14T05:43:13.803Z,2872
2017-05-14T05:44:14.539Z,2892
2017-05-14T05:45:15.273Z,2916
2017-05-14T05:46:16.008Z,2916
2017-05-14T05:47:16.746Z,2920
2017-05-14T05:48:17.725Z,2948
2017-05-14T05:49:18.460Z,2960
2017-05-14T05:50:19.196Z,2980
2017-05-14T05:51:19.932Z,3004
2017-05-14T05:52:20.666Z,3032
2017-05-14T05:53:21.653Z,3040
2017-05-14T05:54:22.387Z,3032
2017-05-14T05:55:23.121Z,3060
2017-05-14T05:56:23.855Z,3080
2017-05-14T05:57:24.585Z,3096
2017-05-14T05:58:25.570Z,3120
2017-05-14T05:59:26.305Z,3148
2017-05-14T06:00:27.038Z,3136
2017-05-14T06:01:27.772Z,3156
2017-05-14T06:02:28.519Z,3172
2017-05-14T06:03:29.521Z,3192
2017-05-14T06:04:30.254Z,3232
2017-05-14T06:05:30.987Z,3268
2017-05-14T06:06:31.722Z,3264
2017-05-14T06:07:32.456Z,3320
2017-05-14T06:08:33.439Z,3336
2017-05-14T06:09:34.375Z,3360
2017-05-14T06:10:35.112Z,3396
2017-05-14T06:11:35.846Z,3436
2017-05-14T06:12:36.587Z,3472
2017-05-14T06:17:24.350Z,3728
2017-05-14T06:18:25.084Z,3804
2017-05-14T06:19:25.844Z,3740
2017-05-14T06:20:26.580Z,3836
2017-05-14T06:21:27.313Z,3912
2017-05-14T06:22:28.301Z,3976
2017-05-14T06:23:29.034Z,3964
2017-05-14T06:24:29.770Z,4008
2017-05-14T06:25:30.503Z,4016
2017-05-14T06:26:31.239Z,4048
2017-05-14T06:27:32.250Z,4052
2017-05-14T06:28:32.982Z,4076
2017-05-14T06:29:33.741Z,4108
2017-05-14T06:30:34.478Z,4184
2017-05-14T06:31:35.215Z,4232
2017-05-14T06:32:36.202Z,4364
2017-05-14T06:33:36.937Z,4416
2017-05-14T06:34:37.671Z,4468
2017-05-14T06:35:38.407Z,4504
2017-05-14T06:36:39.141Z,4540
2017-05-14T06:37:40.127Z,4644
2017-05-14T06:38:40.862Z,4820
2017-05-14T06:39:41.599Z,5128
2017-05-14T06:40:42.340Z,5544
2017-05-14T06:41:43.094Z,6120
2017-05-14T06:42:44.080Z,6592
2017-05-14T06:43:44.814Z,7008
2017-05-14T06:44:45.552Z,7268
2017-05-14T06:45:46.285Z,7744
2017-05-14T06:46:47.022Z,8504
2017-05-14T06:47:48.008Z,9400
2017-05-14T06:48:48.745Z,9672
2017-05-14T06:49:49.481Z,9720
2017-05-14T06:50:50.242Z,9532
2017-05-14T06:51:50.977Z,9780
2017-05-14T06:52:51.966Z,9936
2017-05-14T06:53:52.703Z,10400
2017-05-14T06:54:53.441Z,10304
2017-05-14T06:55:54.179Z,10212
2017-05-14T06:56:54.917Z,10340
2017-05-14T06:57:55.904Z,10100
2017-05-14T06:58:56.641Z,10904
2017-05-14T06:59:57.379Z,11104
2017-05-14T07:00:58.118Z,11388
2017-05-14T07:01:58.858Z,11956
2017-05-14T07:02:59.848Z,12388
2017-05-14T07:04:00.585Z,11576
2017-05-14T07:05:01.322Z,11512
2017-05-14T07:06:02.059Z,12100
2017-05-14T07:07:02.800Z,12060
2017-05-14T07:08:03.787Z,13416
2017-05-14T07:09:04.526Z,13668
2017-05-14T07:10:05.268Z,14432
2017-05-14T07:11:06.009Z,14204
2017-05-14T07:12:07.081Z,14752
2017-05-14T07:15:43.508Z,15872
2017-05-14T07:19:15.449Z,14636
2017-05-14T07:20:16.194Z,14356
2017-05-14T07:21:17.188Z,14172
2017-05-14T07:22:17.955Z,13932
2017-05-14T07:23:18.696Z,13792
2017-05-14T07:24:19.435Z,13848
2017-05-14T07:25:20.178Z,14040
2017-05-14T07:26:21.171Z,14436
2017-05-14T07:27:21.914Z,14824
2017-05-14T07:28:22.656Z,14956
2017-05-14T07:29:23.399Z,14672
2017-05-14T07:30:24.167Z,14796
2017-05-14T07:31:25.157Z,15128
2017-05-14T07:32:25.900Z,15596
2017-05-14T07:33:26.648Z,16640
2017-05-14T07:34:27.380Z,17184
2017-05-14T07:35:28.123Z,17504
2017-05-14T07:36:29.115Z,17856
2017-05-14T07:37:29.858Z,17280
2017-05-14T07:38:30.600Z,16896
2017-05-14T07:39:31.343Z,16800
2017-05-14T07:40:32.109Z,17152
2017-05-14T07:41:33.125Z,19488
2017-05-14T07:42:33.865Z,17984
2017-05-14T07:46:06.098Z,28384
2017-05-14T07:47:06.844Z,25088
2017-05-14T07:48:07.588Z,24480
2017-05-14T07:49:08.359Z,27072
2017-05-14T07:50:09.107Z,34848
2017-05-14T07:51:10.103Z,29344
2017-05-14T07:52:10.850Z,43360
2017-05-14T07:53:11.596Z,24128
2017-05-14T07:54:12.346Z,59872
2017-05-14T07:55:13.091Z,34048
2017-05-14T07:56:14.086Z,25568
2017-05-14T07:57:14.835Z,27520
2017-05-14T07:58:15.580Z,65536
2017-05-14T07:59:16.329Z,56672
2017-05-14T08:00:17.076Z,58240
2017-05-14T08:01:18.075Z,48032
2017-05-14T08:02:18.849Z,54368
2017-05-14T08:03:19.595Z,60832
2017-05-14T08:04:20.342Z,38560
2017-05-14T08:05:21.091Z,51712
2017-05-14T08:06:22.087Z,68640
2017-05-14T08:07:22.836Z,53408
2017-05-14T08:08:23.584Z,68768
2017-05-14T08:09:24.333Z,69120
2017-05-14T08:10:25.107Z,69408
2017-05-14T08:11:26.104Z,67648
2017-05-14T08:12:26.855Z,43264
2017-05-14T08:13:27.604Z,54464
2017-05-14T08:14:28.352Z,55040
2017-05-14T08:15:29.098Z,57056
2017-05-14T08:16:30.100Z,71072
2017-05-14T08:17:30.846Z,53600
2017-05-14T08:18:31.595Z,52416
2017-05-14T08:19:32.346Z,62464
2017-05-14T08:20:33.092Z,35552
2017-05-14T08:21:34.092Z,59200
2017-05-14T08:22:34.844Z,26272
2017-05-14T08:23:35.597Z,28096
2017-05-14T08:24:36.371Z,21568
2017-05-14T08:25:37.117Z,23936
2017-05-14T08:26:38.115Z,25472
2017-05-14T08:27:38.890Z,21344
2017-05-14T08:28:39.634Z,17120
2017-05-14T08:34:43.055Z,37408
2017-05-14T08:35:43.823Z,24832
2017-05-14T08:36:44.593Z,23520
2017-05-14T08:37:45.338Z,29760
2017-05-14T08:38:46.081Z,36800
2017-05-14T08:39:47.099Z,26656
2017-05-14T08:40:47.844Z,31104
2017-05-14T08:41:48.584Z,28384
2017-05-14T08:42:49.351Z,26592
2017-05-14T08:43:50.094Z,42688
2017-05-14T08:44:51.090Z,30208
2017-05-14T08:45:51.833Z,39328
2017-05-14T08:46:52.576Z,57952
2017-05-14T08:47:53.318Z,68800
2017-05-14T08:48:54.061Z,62560
2017-05-14T08:49:55.056Z,56672
2017-05-14T08:50:55.800Z,34976
2017-05-14T08:51:56.541Z,29888
2017-05-14T08:52:57.284Z,49696
2017-05-14T08:53:58.027Z,33504
2017-05-14T08:54:59.022Z,30272
2017-05-14T08:58:30.980Z,77568
2017-05-14T08:59:31.728Z,74624
2017-05-14T09:00:32.774Z,78368
2017-05-14T09:01:33.520Z,77408
2017-05-14T09:02:34.262Z,77024
2017-05-14T09:03:35.013Z,76096
2017-05-14T09:04:35.763Z,76864
2017-05-14T09:05:36.761Z,78784
2017-05-14T09:06:37.507Z,75520
2017-05-14T09:07:38.256Z,75936
2017-05-14T09:08:39.008Z,70880
2017-05-14T09:09:39.755Z,74944
2017-05-14T09:10:40.758Z,70816
2017-05-14T09:11:41.506Z,18496
2017-05-14T09:12:42.256Z,72512
2017-05-14T09:13:43.004Z,77632
2017-05-14T09:14:44.083Z,76832
2017-05-14T09:15:45.015Z,58144
2017-05-14T09:16:45.762Z,77216
2017-05-14T09:17:46.511Z,77856
2017-05-14T09:18:47.259Z,79520
2017-05-14T09:19:48.010Z,79392
2017-05-14T09:20:49.011Z,78144
2017-05-14T09:21:49.768Z,77152
2017-05-14T09:22:50.544Z,78496
2017-05-14T09:23:51.299Z,76128
2017-05-14T09:24:52.048Z,82656
2017-05-14T09:25:53.053Z,85440
2017-05-14T09:26:53.835Z,80736
2017-05-14T09:27:54.592Z,84544
2017-05-14T09:28:55.345Z,56544
2017-05-14T09:29:56.106Z,86720
2017-05-14T09:30:57.115Z,93920
2017-05-14T09:31:57.874Z,86848
2017-05-14T09:32:58.635Z,80704
2017-05-14T09:33:59.393Z,86816
2017-05-14T09:35:00.183Z,13216
2017-05-14T09:36:01.218Z,83744
2017-05-14T09:37:01.974Z,91776
2017-05-14T09:38:02.735Z,87712
2017-05-14T09:39:03.523Z,89504
2017-05-14T09:40:04.290Z,47040
2017-05-14T09:41:05.299Z,88576
2017-05-14T09:42:06.122Z,57376
2017-05-14T09:43:06.876Z,86592
2017-05-14T09:44:07.635Z,89248
2017-05-14T09:45:08.396Z,87616
2017-05-14T09:46:09.406Z,90016
2017-05-14T09:47:10.170Z,89568
2017-05-14T09:48:10.928Z,88992
2017-05-14T09:49:11.686Z,82304
2017-05-14T09:50:12.472Z,83968
2017-05-14T09:51:13.483Z,22240
2017-05-14T09:52:14.237Z,21856
2017-05-14T09:53:15.021Z,62560
2017-05-14T09:54:15.797Z,16448
2017-05-14T09:55:16.614Z,16824
2017-05-14T09:56:17.619Z,86048
2017-05-14T09:57:18.379Z,84608
2017-05-14T09:58:19.134Z,62912
2017-05-14T09:59:19.892Z,93760
2017-05-14T10:00:20.677Z,94464
2017-05-14T10:01:21.687Z,100864
2017-05-14T10:02:22.442Z,43168
2017-05-14T10:03:23.197Z,21440
2017-05-14T10:04:24.220Z,56256
2017-05-14T10:05:25.008Z,108256
2017-05-14T10:06:26.015Z,43424
2017-05-14T10:07:26.774Z,97600
2017-05-14T10:08:27.531Z,99616
2017-05-14T10:09:28.288Z,76000
2017-05-14T10:10:29.083Z,86400
2017-05-14T10:11:30.096Z,26432
2017-05-14T10:12:30.854Z,74016
2017-05-14T10:13:31.609Z,16480
2017-05-14T10:14:32.367Z,13956
2017-05-14T10:15:33.117Z,13228
2017-05-14T10:16:34.119Z,12216
2017-05-14T10:17:34.865Z,9320
2017-05-14T10:18:35.634Z,7496
2017-05-14T10:19:36.381Z,6844
2017-05-14T10:20:37.146Z,5836
2017-05-14T10:21:38.143Z,5388
2017-05-14T10:22:38.886Z,5540
2017-05-14T10:23:39.629Z,5888
2017-05-14T10:24:40.415Z,6744
2017-05-14T10:25:41.160Z,7868
2017-05-14T10:26:42.208Z,9588
2017-05-14T10:27:42.952Z,13156
2017-05-14T10:28:43.720Z,19712
2017-05-14T10:29:44.463Z,41888
2017-05-14T10:30:45.202Z,106272
2017-05-14T10:31:46.205Z,99840
2017-05-14T10:32:46.978Z,15600
2017-05-14T10:33:47.759Z,100064
2017-05-14T10:34:48.506Z,37472
2017-05-14T10:35:49.250Z,95200
2017-05-14T10:36:50.246Z,76896
2017-05-14T10:37:50.995Z,96704
2017-05-14T10:38:51.766Z,97952
2017-05-14T10:39:52.539Z,98272
2017-05-14T10:40:53.288Z,38464
2017-05-14T10:41:54.285Z,102112
2017-05-14T10:42:55.037Z,94624
2017-05-14T10:43:55.801Z,100032
2017-05-14T10:44:56.554Z,98688
2017-05-14T10:45:57.309Z,62656
2017-05-14T10:46:58.313Z,72896
2017-05-14T10:47:59.068Z,87104
2017-05-14T10:48:59.842Z,71264
2017-05-14T10:50:00.883Z,88544
2017-05-14T10:51:01.899Z,83872
2017-05-14T10:52:02.907Z,87776
2017-05-14T10:53:03.670Z,82976
2017-05-14T10:54:04.433Z,89792
2017-05-14T10:55:05.186Z,97088
2017-05-14T10:56:05.958Z,97152
2017-05-14T10:57:06.960Z,85312
2017-05-14T10:58:07.756Z,45600
2017-05-14T10:59:08.513Z,99808
2017-05-14T11:00:09.276Z,100480
2017-05-14T11:01:10.028Z,91136
2017-05-14T11:02:11.086Z,88800
2017-05-14T11:03:11.840Z,85088
2017-05-14T11:04:12.600Z,30432
2017-05-14T11:05:13.380Z,17344
2017-05-14T11:06:14.131Z,27264
2017-05-14T11:07:15.131Z,28896
2017-05-14T11:08:15.881Z,19552
2017-05-14T11:09:16.637Z,98240
2017-05-14T11:10:17.394Z,28416
2017-05-14T11:11:18.145Z,41536
2017-05-14T11:12:19.153Z,21760
2017-05-14T11:13:19.921Z,26816
2017-05-14T11:14:20.672Z,84192
2017-05-14T11:15:21.431Z,36000
2017-05-14T11:16:22.184Z,97376
2017-05-14T11:17:23.188Z,94976
2017-05-14T11:18:23.940Z,93760
2017-05-14T11:19:24.701Z,95968
2017-05-14T11:20:25.487Z,90272
2017-05-14T11:21:26.242Z,77312
2017-05-14T11:22:27.243Z,75200
2017-05-14T11:23:28.002Z,68320
2017-05-14T11:24:28.789Z,45024
2017-05-14T11:25:29.552Z,54880
2017-05-14T11:26:30.316Z,51072
2017-05-14T11:27:31.343Z,50272
2017-05-14T11:28:32.105Z,66656
2017-05-14T11:29:32.856Z,64096
2017-05-14T11:30:33.619Z,57376
2017-05-14T11:31:34.374Z,53504
2017-05-14T11:32:35.377Z,71424
2017-05-14T11:33:36.134Z,86976
2017-05-14T11:34:36.887Z,87328
2017-05-14T11:35:37.651Z,88576
2017-05-14T11:36:38.408Z,75744
2017-05-14T11:37:39.415Z,71968
2017-05-14T11:38:40.194Z,82688
2017-05-14T11:39:40.948Z,84992
2017-05-14T11:40:41.706Z,88064
2017-05-14T11:41:42.464Z,85824
2017-05-14T11:42:43.496Z,74688
2017-05-14T11:43:44.281Z,68768
2017-05-14T11:44:45.040Z,72160
2017-05-14T11:45:45.798Z,75040
2017-05-14T11:46:46.557Z,77856
2017-05-14T11:47:47.567Z,81344
2017-05-14T11:48:48.321Z,76416
2017-05-14T11:49:49.106Z,76192
2017-05-14T11:50:49.863Z,65408
2017-05-14T11:51:50.621Z,47264
2017-05-14T11:52:51.626Z,58752
2017-05-14T11:53:52.406Z,22464
2017-05-14T11:54:53.159Z,16640
2017-05-14T11:55:53.911Z,12908
2017-05-14T11:56:54.666Z,9280
2017-05-14T11:57:55.672Z,7512
2017-05-14T11:58:56.422Z,6084
2017-05-14T11:59:57.197Z,5192
2017-05-14T12:00:57.940Z,4548
2017-05-14T12:01:58.684Z,4128
2017-05-14T12:02:59.677Z,3720
2017-05-14T12:04:00.422Z,3264
2017-05-14T12:05:01.188Z,2912
2017-05-14T12:06:01.930Z,2668
2017-05-14T12:07:02.672Z,2556
2017-05-14T12:08:03.665Z,2552
2017-05-14T12:09:04.407Z,2508
2017-05-14T12:10:05.146Z,2492
2017-05-14T12:11:05.890Z,2580
2017-05-14T12:12:06.622Z,2796
2017-05-14T12:13:07.613Z,3104
2017-05-14T12:14:08.357Z,3380
2017-05-14T12:15:09.097Z,3600
2017-05-14T12:16:09.836Z,3920
2017-05-14T12:17:10.601Z,4448
2017-05-14T12:18:11.594Z,4996
2017-05-14T12:19:12.333Z,5432
2017-05-14T12:20:13.077Z,5576
2017-05-14T12:21:13.821Z,5076
2017-05-14T12:22:14.564Z,4516
2017-05-14T12:23:15.559Z,4304
2017-05-14T12:24:16.294Z,4416
2017-05-14T12:25:17.037Z,4604
2017-05-14T12:26:17.782Z,4908
2017-05-14T12:27:18.521Z,5412
2017-05-14T12:28:19.513Z,6100
2017-05-14T12:29:20.255Z,6860
2017-05-14T12:30:20.994Z,7568
2017-05-14T12:31:21.735Z,8280
2017-05-14T12:32:22.499Z,8584
2017-05-14T12:33:23.490Z,8976
2017-05-14T12:34:24.489Z,9952
2017-05-14T12:35:25.230Z,11116
2017-05-14T12:36:25.970Z,13560
2017-05-14T12:37:26.707Z,17056
2017-05-14T12:38:27.723Z,24704
2017-05-14T12:39:28.464Z,33344
2017-05-14T12:40:29.209Z,21760
2017-05-14T12:41:29.944Z,19680
2017-05-14T12:42:30.688Z,49152
2017-05-14T12:43:31.681Z,21920
2017-05-14T12:44:32.425Z,20544
2017-05-14T12:45:33.169Z,33824
2017-05-14T12:46:33.914Z,83232
2017-05-14T12:47:34.660Z,71584
2017-05-14T12:48:35.653Z,27808
2017-05-14T12:49:36.398Z,73344
2017-05-14T12:50:37.144Z,83392
2017-05-14T12:51:37.895Z,85504
2017-05-14T12:52:38.638Z,85056
2017-05-14T12:53:39.657Z,71456
2017-05-14T12:54:40.404Z,58816
2017-05-14T12:55:41.149Z,47552
2017-05-14T12:56:41.898Z,59200
2017-05-14T12:57:42.645Z,61952
2017-05-14T12:58:43.642Z,44416
2017-05-14T12:59:44.383Z,15992
2017-05-14T13:00:45.127Z,24128
2017-05-14T13:01:45.899Z,15732
2017-05-14T13:02:46.641Z,17536
2017-05-14T13:03:47.632Z,20800
2017-05-14T13:04:48.378Z,55648
2017-05-14T13:05:49.125Z,66368
2017-05-14T13:06:49.876Z,65376
2017-05-14T13:07:50.646Z,54688
2017-05-14T13:08:51.642Z,41792
2017-05-14T13:09:52.388Z,30944
2017-05-14T13:10:53.133Z,21504
2017-05-14T13:11:53.877Z,14780
2017-05-14T13:12:54.647Z,17312
2017-05-14T13:13:55.635Z,33760
2017-05-14T13:14:56.378Z,16004
2017-05-14T13:15:57.123Z,28832
2017-05-14T13:16:57.862Z,24800
2017-05-14T13:17:58.602Z,16000
2017-05-14T13:18:59.646Z,14212
2017-05-14T13:20:00.416Z,11420
2017-05-14T13:21:01.155Z,10648
2017-05-14T13:22:01.900Z,10204
2017-05-14T13:23:02.641Z,10116
2017-05-14T13:24:03.633Z,10412
2017-05-14T13:25:04.374Z,10368
2017-05-14T13:26:05.115Z,10796
2017-05-14T13:27:05.857Z,15476
2017-05-14T13:28:06.596Z,15456
2017-05-14T13:29:07.611Z,19616
2017-05-14T13:30:08.348Z,17376
2017-05-14T13:31:09.087Z,27200
2017-05-14T13:32:09.827Z,28832
2017-05-14T13:33:10.570Z,35232
2017-05-14T13:34:11.564Z,51008
2017-05-14T13:35:12.309Z,66336
2017-05-14T13:36:13.052Z,71808
2017-05-14T13:37:13.794Z,70624
2017-05-14T13:38:14.536Z,68992
2017-05-14T13:39:15.530Z,65920
2017-05-14T13:40:16.279Z,66272
2017-05-14T13:41:17.026Z,72096
2017-05-14T13:42:17.774Z,61088
2017-05-14T13:43:18.524Z,55904
2017-05-14T13:44:19.522Z,75488
2017-05-14T13:45:20.269Z,72000
2017-05-14T13:46:21.041Z,72832
2017-05-14T13:47:21.792Z,75104
2017-05-14T13:48:22.540Z,75776
2017-05-14T13:49:23.563Z,75744
2017-05-14T13:50:24.317Z,68896
2017-05-14T13:51:25.066Z,73568
2017-05-14T13:52:25.816Z,66048
2017-05-14T13:53:26.593Z,32576
2017-05-14T13:54:27.589Z,77504
2017-05-14T13:55:28.341Z,60608
2017-05-14T13:56:29.115Z,69920
2017-05-14T13:57:29.865Z,68064
2017-05-14T13:58:30.613Z,69344
2017-05-14T13:59:31.612Z,64448
2017-05-14T14:00:32.362Z,69600